Eagleville, Tennessee
Current Conditions -  °F | °C
As of 12:53 PM on Thursday 27 Nov 2014 (Local Time) from KBNA Reporting Station
Broken Clouds Broken Clouds  
Wind Chill: 32°   Ceiling: 3400
Heat Index: 39°   Visibility: 10mi
Dew Point: 26°   Wind: 10mph
Humidity: 60%   Direction: 340°NNW
Pressure: 30.41"   Gusts: 20mph
Location:  35.74°N, 86.65°W
Report Text: KBNA 271853Z 34009G17KT 10SM FEW027 BKN034 04/M03 A3041 RMK AO2 SLP299 T00391033
Loading
Personal Weather Stations






























Interactive Weather Map New forecast layout! Learn more

10-Day Weather Forecast

Advertisements
Track Severe Weather on mobile